Benvolgut visitant, si us plau, ingressa Recuperar contrasenya
AVAMET paisatges
Union Alcoyana

Sant Fulgenci Urb. La Marina

Dades diàries. Acumulats / Últims 30 dies disponibles

Data Temperatura (°C) Humitat rel. (%) Pressió rel. (hPa) Vent (km/h) Precipitació
Mínima Mitjana Màxima Amplitud
tèrmica
Mínima Mitjana Màxima Mínima Mitjana Màxima Predom. Mitjana Ràfega
màxima
Total
(mm)
Índex-n
Mínima Mitjana Màxima Mínima Mitjana Màxima n
0 a 1
P0 max
mm 5'
Dades mensuals acumulades fins l'últim dia disponible
05/2022 11,6 14,5 18,3 19,1 16,8 23,1 27,6 16,0 42 74 94 1.009 1.019 1.025   6,5 38,6 18,8
Dades anuals acumulades fins l'últim dia disponible
2022 1,8 9,9 18,7 13,9 10,9 18,3 27,6 25,8 13 74 95 999 1.020 1.035   6,8 57,9 304,2
Últims 30 dies disponibles
20-05-2022 17,9     23,4     27,6 9,7 48 65 78 1.021 1.022 1.023 NE 10,0 38,6 0,0
19-05-2022 16,8     22,4     26,1 9,3 50 68 87 1.018 1.020 1.022 ENE 9,4 37,0 0,0
18-05-2022 18,3     21,8     24,6 6,3 64 77 87 1.017 1.018 1.019 E 5,8 24,1 0,0
17-05-2022 16,5     21,4     25,2 8,7 58 79 93 1.017 1.019 1.020 ESE 5,4 22,5 0,0
16-05-2022 16,3     20,8     24,6 8,3 65 83 94 1.017 1.019 1.021 ESE 5,3 20,9 0,3
15-05-2022 14,6     20,1     24,2 9,6 51 70 89 1.015 1.017 1.018 E 5,8 24,1 0,0
14-05-2022 14,8     19,9     23,9 9,1 45 73 94 1.017 1.019 1.021 E 5,1 24,1 0,3
13-05-2022 14,4     18,8     24,7 10,3 54 81 92 1.020 1.021 1.022 SSE 5,7 24,1 0,3
12-05-2022 12,6     18,3     22,3 9,7 57 75 88 1.019 1.020 1.022 ENE 7,9 29,0 0,0
11-05-2022 17,3     20,8     23,1 5,8 46 66 87 1.020 1.021 1.022 ESE 8,9 24,1 0,0
10-05-2022 13,2     17,5     22,6 9,4 42 69 83 1.023 1.024 1.025 NNW 3,3 20,9 0,0
09-05-2022 13,2     19,0     23,3 10,1 44 65 85 1.021 1.022 1.024 ENE 6,0 22,5 0,0
08-05-2022 13,0     18,3     23,6 10,6 46 68 87 1.018 1.019 1.021 ENE 6,3 29,0 0,0
07-05-2022 12,4     17,7     23,3 10,9 53 73 88 1.019 1.020 1.021 ENE 6,1 30,6 0,0
06-05-2022 11,6     16,9     21,2 9,6 67 78 90 1.019 1.020 1.023 E 5,7 25,7 0,0
05-05-2022 13,4     17,2     21,8 8,4 56 71 90 1.016 1.019 1.023 N 6,1 27,4 0,0
04-05-2022 13,0     14,5     16,8 3,8 84 90 94 1.013 1.014 1.017 NNE 5,8 32,2 16,8 0,35 1,30
03-05-2022 12,0     16,6     20,6 8,6 61 80 91 1.009 1.011 1.013 NE 6,6 30,6 0,0
02-05-2022 15,3     17,2     19,5 4,2 71 82 90 1.009 1.012 1.015 ENE 8,5 37,0 0,8
01-05-2022 13,7     18,4     23,7 10,0 54 69 80 1.015 1.017 1.020 E 5,4 24,1 0,3
30-04-2022 10,8     17,9     24,6 13,8 38 67 87 1.019 1.021 1.024 WNW 6,5 25,7 0,0
29-04-2022 11,1     15,7     19,8 8,7 58 78 89 1.021 1.022 1.024 NNW 6,6 37,0 0,0
28-04-2022 13,1     14,1     15,1 2,0 80 88 92 1.017 1.019 1.022 NNE 3,0 16,1 4,1 0,34 0,70
27-04-2022 12,7     14,8     18,4 5,7 51 77 91 1.014 1.017 1.019 NNW 2,6 19,3 1,5 0,26 0,30
26-04-2022 10,6     15,1     18,9 8,3 54 74 89 1.013 1.014 1.015 NE 5,6 27,4 0,0
25-04-2022 11,0     15,8     19,3 8,3 58 76 88 1.011 1.013 1.014 E 5,1 24,1 0,0
24-04-2022 10,3     16,0     22,0 11,7 35 60 74 1.011 1.012 1.013 SW 8,2 35,4 0,0
23-04-2022 11,9     16,3     20,8 8,9 31 58 83 999 1.004 1.010 W 8,8 41,8 0,5
22-04-2022 11,8     15,6     19,2 7,4 51 65 74 1.000 1.003 1.006 SW 4,9 24,1 0,0
21-04-2022 11,2     16,1     21,7 10,5 40 56 69 1.003 1.005 1.006 WNW 8,8 43,5 0,0
Últims 13 mesos disponibles
04/2022 4,6 11,1 16,1 15,3 11,0 19,6 26,2 21,6 43 69 88 1.003 1.014 1.022 WNW 7,1 57,9 95,6
03/2022 6,3 10,7 18,7 13,7 13,3 17,1 21,8 15,5 54 80 93 1.003 1.017 1.026 NE 9,5 57,9 161,5
02/2022 5,4 8,6 12,4 12,9 14,1 17,8 24,5 19,1 44 72 89 1.017 1.024 1.031 W 5,3 45,1 5,3
01/2022 1,8 6,1 14,3 10,5 10,9 15,8 24,1 22,3 42 73 89 1.014 1.026 1.032 W 5,2 49,9 23,0
12/2021 5,8 10,3 14,8 14,0 14,7 18,4 25,2 19,4 48 70 90 1.009 1.020 1.028 W 5,6 49,9 1,7
11/2021 6,9 10,7 20,4 14,4 13,6 19,0 26,3 19,4 47 67 85 1.006 1.015 1.025 W 6,0 51,5 31,0
10/2021 12,4 15,7 20,3 19,8 21,2 24,2 29,4 17,0 55 77 88 1.010 1.018 1.025 NNE 5,2 51,5 58,8
09/2021 16,2 20,4 24,6 24,6 24,7 28,6 34,3 18,1 61 75 84 1.012 1.016 1.023 NNE 6,8 41,8 17,8
08/2021 20,1 22,8 25,4 26,5 26,9 30,4 38,6 18,5 60 76 85 1.006 1.014 1.019 ENE 7,4 43,5 1,4
07/2021 19,2 21,4 23,9 25,5 26,2 29,6 39,4 20,2 59 76 86 1.008 1.014 1.020 NE 7,3 41,8 1,9
06/2021 15,3 18,8 21,5 22,8 23,2 26,5 29,7 14,4 53 73 88 1.009 1.016 1.020 ENE 7,5 54,7 18,1
05/2021 12,3 15,4 17,9 19,5 18,9 23,9 34,7 22,4 45 71 85 1.007 1.016 1.023 NE 8,2 48,3 69,4
04/2021 7,6 12,3 14,8 15,5 14,3 19,2 27,9 20,3 59 78 89 1.005 1.014 1.023 SSE 7,9 45,1 54,5
Tots els anys disponibles
2021 1,7 14,6 25,4 18,5 8,9 22,7 39,4 37,7 43 73 91 1.001 1.016 1.033 NE 6,9 64,4 378,6
Temperatura (°C)
Humitat relativa (%)
Velocitat del vent i ràfega màxima (km/h)
Direcció del vent (°)
Pressió (hPa)
Precipitació (mm)
Nota sobre les dades: s'avisa a l'usuari de la provisionalitat i no oficialitat d'aquestes dades
Logo AVAMET blanc
Web allotjada a Sollutia
Llicència de Creative CommonsLa web d'AVAMET i els seus continguts estan subjectes a una llicència de
Reconeixement - No Comercial - Compartir igual
Avís legal - Política de privacitat - Política de cookies
NOVES ESTACIONS:  Vila-real - les Solaes (Soci), Calles - Parque de Emergencias (Soci), Bocairent - els Corrals (Soci), Sella - el Xarquer, Xàbia - Far del Cap de la Nau (Soci), Benicàssim - Quadre de Santiago (Soci), Sant Mateu - IES Maestrat (Soci)  / el Palomar (Ajuntament/Soci) / Atzeneta del Maestrat - Pla de Meanes (Ajuntament/Soci) / Onda - Sant Gil (Soci) / Onda - Ràtils CR Cota 220 (Soci) / la Vila Joiosa (Ajuntament/Soci) / Miramar - Platja (Ajuntament/Soci) / Massanassa - IES Massanassa (Soci) / Culla - Pla de les Vinyes (Ajuntament/Soci) - - -